createdAt,value
2023-05-11T00:02:23.648Z,15.27
2023-05-11T00:04:53.521Z,15.27
2023-05-11T00:07:33.755Z,15.20
2023-05-11T00:10:05.523Z,15.19
2023-05-11T00:12:35.355Z,15.29
2023-05-11T00:15:08.337Z,15.24
2023-05-11T00:17:38.844Z,15.19
2023-05-11T00:20:11.707Z,15.23
2023-05-11T00:22:41.919Z,15.16
2023-05-11T00:25:13.230Z,15.12
2023-05-11T00:27:47.114Z,15.13
2023-05-11T00:30:16.319Z,15.13
2023-05-11T00:32:45.820Z,15.17
2023-05-11T00:35:16.416Z,15.08
2023-05-11T00:37:45.445Z,15.07
2023-05-11T00:40:13.905Z,15.14
2023-05-11T00:42:44.973Z,15.16
2023-05-11T00:45:13.242Z,15.23
2023-05-11T00:47:41.835Z,15.16
2023-05-11T00:50:15.698Z,15.22
2023-05-11T00:52:47.733Z,15.29
2023-05-11T00:55:16.182Z,15.35
2023-05-11T00:57:44.892Z,15.38
2023-05-11T01:00:20.789Z,15.42
2023-05-11T01:02:51.426Z,15.35
2023-05-11T01:05:20.858Z,15.38
2023-05-11T01:08:01.207Z,15.15
2023-05-11T01:10:39.239Z,15.21
2023-05-11T01:13:18.098Z,15.20
2023-05-11T01:19:40.729Z,15.23
2023-05-11T01:22:17.108Z,15.21
2023-05-11T01:25:02.564Z,15.08
2023-05-11T01:27:48.140Z,15.15
2023-05-11T01:30:37.299Z,15.17
2023-05-11T01:33:11.308Z,15.17
2023-05-11T01:35:44.839Z,15.14
2023-05-11T01:38:15.752Z,15.21
2023-05-11T01:40:47.482Z,15.19
2023-05-11T01:43:22.792Z,15.20
2023-05-11T01:45:53.764Z,15.23
2023-05-11T01:48:25.819Z,15.23
2023-05-11T01:50:55.862Z,15.21
2023-05-11T01:53:25.857Z,15.02
2023-05-11T01:55:56.949Z,15.08
2023-05-11T01:58:27.035Z,15.14
2023-05-11T02:01:00.063Z,15.14
2023-05-11T02:03:32.106Z,15.08
2023-05-11T02:06:02.019Z,14.95
2023-05-11T02:08:32.123Z,15.08
2023-05-11T02:11:03.775Z,15.15
2023-05-11T02:13:35.891Z,15.15
2023-05-11T02:16:09.041Z,15.12
2023-05-11T02:18:40.467Z,15.10
2023-05-11T02:21:12.391Z,15.13
2023-05-11T02:23:41.778Z,15.04
2023-05-11T02:26:12.642Z,15.01
2023-05-11T02:28:40.904Z,14.99
2023-05-11T02:31:17.651Z,15.02
2023-05-11T02:33:52.083Z,15.03
2023-05-11T02:36:23.377Z,15.12
2023-05-11T02:38:54.865Z,15.12
2023-05-11T02:41:28.286Z,15.03
2023-05-11T02:43:59.843Z,15.00
2023-05-11T02:46:34.963Z,14.92
2023-05-11T02:49:07.045Z,14.97
2023-05-11T02:51:39.218Z,14.96
2023-05-11T02:54:10.805Z,15.00
2023-05-11T02:56:39.855Z,15.05
2023-05-11T02:59:07.853Z,15.02
2023-05-11T03:01:43.136Z,15.02
2023-05-11T03:04:11.804Z,15.06
2023-05-11T03:06:40.573Z,15.03
2023-05-11T03:09:10.177Z,15.01
2023-05-11T03:11:39.247Z,15.05
2023-05-11T03:14:08.270Z,15.07
2023-05-11T03:16:39.265Z,15.09
2023-05-11T03:19:08.955Z,15.08
2023-05-11T03:21:38.611Z,15.02
2023-05-11T03:24:08.821Z,14.96
2023-05-11T03:26:38.339Z,15.06
2023-05-11T03:29:09.869Z,15.11
2023-05-11T03:31:39.551Z,15.09
2023-05-11T03:34:08.143Z,15.13
2023-05-11T03:36:36.966Z,15.01
2023-05-11T03:39:09.271Z,15.03
2023-05-11T03:41:42.540Z,15.12
2023-05-11T03:44:25.008Z,15.05
2023-05-11T03:46:57.023Z,15.10
2023-05-11T03:49:26.511Z,15.14
2023-05-11T03:51:55.196Z,15.08
2023-05-11T03:54:29.306Z,15.06
2023-05-11T03:56:58.060Z,15.02
2023-05-11T03:59:37.942Z,14.89
2023-05-11T04:02:07.884Z,14.92
2023-05-11T04:04:36.827Z,14.89
2023-05-11T04:07:07.049Z,14.98
2023-05-11T04:09:35.363Z,14.84
2023-05-11T04:12:04.318Z,14.86
2023-05-11T04:14:32.562Z,14.92
2023-05-11T04:17:01.570Z,14.92
2023-05-11T04:19:31.130Z,14.87
2023-05-11T04:22:00.329Z,14.87
2023-05-11T04:24:28.407Z,14.81
2023-05-11T04:27:00.707Z,14.86
2023-05-11T04:29:29.995Z,14.79
2023-05-11T04:31:59.505Z,14.94
2023-05-11T04:34:28.552Z,15.04
2023-05-11T04:36:59.283Z,14.94
2023-05-11T04:39:27.692Z,14.93
2023-05-11T04:41:56.445Z,14.82
2023-05-11T04:44:25.701Z,14.89
2023-05-11T04:46:57.959Z,14.59
2023-05-11T04:49:27.371Z,14.51
2023-05-11T04:51:55.651Z,14.55
2023-05-11T04:54:26.460Z,14.68
2023-05-11T04:56:54.630Z,14.72
2023-05-11T04:59:24.125Z,14.75
2023-05-11T05:01:53.270Z,14.74
2023-05-11T05:04:21.604Z,14.69
2023-05-11T05:06:50.008Z,14.85
2023-05-11T05:09:20.223Z,14.88
2023-05-11T05:11:52.523Z,14.90
2023-05-11T05:14:25.367Z,14.87
2023-05-11T05:16:54.627Z,14.99
2023-05-11T05:19:24.512Z,14.99
2023-05-11T05:21:53.528Z,15.09
2023-05-11T05:24:21.553Z,15.19
2023-05-11T05:26:51.238Z,15.19
2023-05-11T05:29:19.644Z,15.32
2023-05-11T05:31:47.644Z,15.30
2023-05-11T05:36:58.312Z,15.11
2023-05-11T05:39:26.514Z,15.17
2023-05-11T05:41:57.099Z,15.12
2023-05-11T05:44:26.150Z,15.00
2023-05-11T05:46:54.299Z,15.11
2023-05-11T05:49:22.201Z,15.14
2023-05-11T05:51:51.615Z,15.35
2023-05-11T05:54:19.768Z,15.26
2023-05-11T05:56:48.508Z,15.11
2023-05-11T05:59:20.746Z,14.80
2023-05-11T06:01:49.009Z,14.63
2023-05-11T06:04:18.754Z,14.67
2023-05-11T06:06:47.553Z,14.75
2023-05-11T06:09:16.672Z,14.87
2023-05-11T06:11:45.077Z,14.89
2023-05-11T06:14:14.795Z,15.05
2023-05-11T06:16:45.043Z,15.19
2023-05-11T06:19:13.580Z,15.19
2023-05-11T06:21:43.074Z,15.16
2023-05-11T06:24:11.023Z,15.21
2023-05-11T06:26:39.609Z,15.19
2023-05-11T06:29:09.189Z,15.27
2023-05-11T06:31:37.340Z,15.36
2023-05-11T06:34:09.310Z,15.25
2023-05-11T06:36:37.785Z,15.18
2023-05-11T06:39:07.247Z,15.30
2023-05-11T06:41:35.375Z,15.40
2023-05-11T06:44:04.025Z,15.59
2023-05-11T06:46:32.410Z,15.56
2023-05-11T06:49:04.251Z,15.49
2023-05-11T06:51:34.062Z,15.45
2023-05-11T06:54:02.790Z,15.56
2023-05-11T06:56:34.205Z,15.72
2023-05-11T06:59:02.695Z,15.74
2023-05-11T07:01:31.803Z,15.87
2023-05-11T07:04:01.350Z,15.55
2023-05-11T07:06:29.945Z,15.46
2023-05-11T07:08:59.562Z,15.82
2023-05-11T07:11:28.029Z,15.85
2023-05-11T07:13:56.027Z,15.99
2023-05-11T07:16:24.921Z,15.93
2023-05-11T07:18:53.395Z,15.81
2023-05-11T07:21:22.876Z,15.93
2023-05-11T07:23:51.412Z,15.96
2023-05-11T07:26:22.093Z,15.98
2023-05-11T07:28:50.351Z,16.08
2023-05-11T07:31:18.378Z,16.10
2023-05-11T07:33:46.320Z,16.05
2023-05-11T07:36:14.530Z,16.18
2023-05-11T07:38:43.595Z,16.23
2023-05-11T07:41:12.622Z,16.36
2023-05-11T07:43:42.520Z,16.41
2023-05-11T07:46:11.351Z,16.31
2023-05-11T07:48:39.733Z,16.38
2023-05-11T07:51:11.677Z,16.37
2023-05-11T07:53:41.180Z,16.29
2023-05-11T07:56:12.413Z,16.48
2023-05-11T07:58:44.607Z,16.59
2023-05-11T08:01:13.420Z,16.73
2023-05-11T08:03:43.601Z,16.88
2023-05-11T08:06:12.572Z,16.94
2023-05-11T08:08:41.076Z,16.88
2023-05-11T08:11:11.957Z,16.95
2023-05-11T08:13:40.719Z,16.91
2023-05-11T08:16:10.589Z,16.94
2023-05-11T08:18:39.006Z,16.93
2023-05-11T08:21:08.721Z,17.03
2023-05-11T08:23:36.909Z,16.81
2023-05-11T08:26:05.126Z,16.90
2023-05-11T08:28:33.569Z,16.79
2023-05-11T08:31:02.498Z,16.77
2023-05-11T08:33:38.729Z,16.88
2023-05-11T08:36:08.925Z,16.76
2023-05-11T08:38:38.121Z,16.83
2023-05-11T08:41:07.969Z,16.80
2023-05-11T08:43:42.644Z,16.87
2023-05-11T08:46:14.203Z,16.81
2023-05-11T08:48:46.393Z,16.80
2023-05-11T08:51:14.662Z,16.73
2023-05-11T08:53:42.825Z,16.77
2023-05-11T08:56:13.513Z,16.75
2023-05-11T08:58:43.789Z,16.76
2023-05-11T09:01:34.363Z,16.55
2023-05-11T09:04:08.031Z,16.56
2023-05-11T09:06:42.973Z,16.65
2023-05-11T09:09:11.761Z,16.71
2023-05-11T09:11:41.040Z,16.75
2023-05-11T09:14:09.786Z,16.77
2023-05-11T09:16:38.187Z,16.50
2023-05-11T09:19:20.026Z,16.34
2023-05-11T09:21:48.731Z,16.54
2023-05-11T09:24:19.311Z,16.54
2023-05-11T09:26:47.713Z,16.62
2023-05-11T09:29:21.642Z,16.61
2023-05-11T09:31:52.640Z,16.67
2023-05-11T09:34:23.903Z,16.68
2023-05-11T09:36:57.952Z,16.79
2023-05-11T09:39:41.684Z,16.79
2023-05-11T09:42:16.934Z,16.77
2023-05-11T09:44:45.418Z,16.76
2023-05-11T09:47:14.772Z,16.90
2023-05-11T09:49:45.813Z,16.78
2023-05-11T09:52:14.921Z,16.57
2023-05-11T09:54:44.933Z,16.53
2023-05-11T09:57:28.232Z,16.47
2023-05-11T09:59:58.138Z,16.48
2023-05-11T10:02:30.073Z,16.58
2023-05-11T10:05:02.888Z,16.73
2023-05-11T10:07:32.127Z,16.91
2023-05-11T10:10:02.294Z,17.03
2023-05-11T10:12:34.175Z,17.04
2023-05-11T10:15:06.438Z,17.15
2023-05-11T10:17:36.121Z,17.29
2023-05-11T10:20:08.254Z,17.37
2023-05-11T10:22:39.190Z,17.48
2023-05-11T10:25:09.222Z,17.61
2023-05-11T10:27:38.525Z,17.75
2023-05-11T10:30:09.223Z,17.99
2023-05-11T10:32:39.083Z,17.79
2023-05-11T10:35:09.896Z,17.73
2023-05-11T10:37:40.561Z,17.85
2023-05-11T10:40:12.873Z,18.03
2023-05-11T10:43:05.561Z,17.72
2023-05-11T10:45:41.775Z,17.73
2023-05-11T10:48:51.213Z,17.80
2023-05-11T10:51:41.886Z,17.86
2023-05-11T10:54:42.029Z,17.99
2023-05-11T10:57:16.868Z,17.86
2023-05-11T11:00:10.697Z,17.91
2023-05-11T11:02:39.352Z,18.05
2023-05-11T11:05:14.126Z,18.23
2023-05-11T11:08:04.490Z,18.25
2023-05-11T11:10:37.457Z,18.23
2023-05-11T11:13:09.223Z,18.31
2023-05-11T11:16:15.480Z,18.38
2023-05-11T11:18:44.595Z,18.41
2023-05-11T11:21:16.365Z,18.57
2023-05-11T11:23:52.750Z,18.75
2023-05-11T11:26:50.685Z,18.75
2023-05-11T11:29:18.855Z,18.66
2023-05-11T11:31:46.904Z,18.62
2023-05-11T11:34:36.445Z,18.72
2023-05-11T11:37:05.588Z,18.72
2023-05-11T11:40:13.313Z,18.89
2023-05-11T11:42:44.473Z,19.31
2023-05-11T11:45:33.614Z,19.54
2023-05-11T11:48:21.498Z,19.75
2023-05-11T11:50:50.842Z,19.62
2023-05-11T11:54:09.609Z,19.88
2023-05-11T11:56:46.461Z,19.97
2023-05-11T11:59:16.202Z,19.67
2023-05-11T12:01:45.559Z,19.69
2023-05-11T12:04:41.131Z,19.94
2023-05-11T12:07:11.508Z,19.91
2023-05-11T12:09:41.207Z,19.90
2023-05-11T12:12:13.122Z,19.88
2023-05-11T12:14:44.908Z,20.22
2023-05-11T12:17:19.304Z,20.57
2023-05-11T12:19:48.494Z,20.88
2023-05-11T12:22:22.966Z,21.07
2023-05-11T12:24:57.686Z,20.88
2023-05-11T12:27:29.840Z,20.93
2023-05-11T12:29:59.669Z,20.94
2023-05-11T12:32:29.288Z,20.98
2023-05-11T12:35:05.871Z,21.13
2023-05-11T12:37:34.312Z,20.92
2023-05-11T12:40:02.449Z,20.83
2023-05-11T12:42:35.216Z,20.62
2023-05-11T12:45:04.196Z,20.62
2023-05-11T12:47:36.578Z,20.67
2023-05-11T12:50:06.468Z,20.88
2023-05-11T12:52:35.128Z,20.98
2023-05-11T12:55:05.989Z,20.84
2023-05-11T12:57:35.381Z,20.91
2023-05-11T13:00:13.092Z,21.19
2023-05-11T13:02:52.124Z,21.43
2023-05-11T13:05:25.130Z,21.47
2023-05-11T13:08:01.430Z,21.58
2023-05-11T13:10:31.849Z,21.75
2023-05-11T13:13:01.890Z,21.60
2023-05-11T13:15:30.818Z,21.29
2023-05-11T13:18:00.102Z,21.19
2023-05-11T13:20:32.404Z,20.92
2023-05-11T13:23:08.583Z,20.77
2023-05-11T13:25:53.100Z,21.01
2023-05-11T13:28:25.341Z,21.11
2023-05-11T13:30:59.824Z,21.09
2023-05-11T13:33:28.066Z,21.06
2023-05-11T13:35:55.998Z,21.18
2023-05-11T13:38:24.209Z,21.21
2023-05-11T13:40:52.278Z,21.35
2023-05-11T13:43:20.568Z,21.45
2023-05-11T13:45:53.277Z,21.41
2023-05-11T13:48:21.292Z,21.03
2023-05-11T13:50:49.225Z,21.28
2023-05-11T13:53:17.399Z,21.61
2023-05-11T13:55:45.435Z,21.75
2023-05-11T13:58:13.600Z,21.69
2023-05-11T14:00:43.482Z,21.68
2023-05-11T14:03:15.728Z,21.59
2023-05-11T14:05:43.603Z,21.59
2023-05-11T14:08:12.566Z,21.57
2023-05-11T14:10:40.439Z,21.68
2023-05-11T14:13:08.336Z,21.59
2023-05-11T14:15:37.374Z,21.63
2023-05-11T14:18:07.861Z,21.52
2023-05-11T14:20:38.617Z,21.46
2023-05-11T14:23:06.605Z,21.52
2023-05-11T14:25:36.118Z,21.47
2023-05-11T14:28:04.034Z,21.36
2023-05-11T14:30:33.108Z,21.37
2023-05-11T14:33:01.374Z,21.39
2023-05-11T14:35:29.234Z,21.45
2023-05-11T14:37:58.529Z,21.45
2023-05-11T14:40:26.651Z,21.38
2023-05-11T14:42:54.602Z,21.37
2023-05-11T14:45:22.590Z,21.48
2023-05-11T14:47:52.592Z,21.38
2023-05-11T14:50:20.870Z,21.28
2023-05-11T14:52:49.039Z,21.24
2023-05-11T14:55:21.522Z,21.43
2023-05-11T14:57:49.451Z,21.51
2023-05-11T15:00:18.553Z,21.79
2023-05-11T15:02:46.595Z,21.85
2023-05-11T15:05:14.523Z,21.95
2023-05-11T15:07:42.409Z,22.00
2023-05-11T15:10:12.003Z,21.99
2023-05-11T15:12:41.697Z,21.90
2023-05-11T15:15:11.180Z,21.93
2023-05-11T15:17:39.108Z,21.72
2023-05-11T15:20:08.382Z,21.73
2023-05-11T15:22:36.236Z,21.58
2023-05-11T15:25:04.280Z,21.36
2023-05-11T15:27:32.513Z,21.38
2023-05-11T15:30:03.871Z,21.55
2023-05-11T15:32:32.232Z,21.74
2023-05-11T15:35:00.480Z,21.66
2023-05-11T15:37:29.232Z,21.73
2023-05-11T15:39:57.493Z,21.48
2023-05-11T15:42:25.748Z,21.40
2023-05-11T15:44:54.055Z,21.32
2023-05-11T15:47:23.621Z,21.54
2023-05-11T15:49:51.721Z,21.54
2023-05-11T15:52:19.682Z,21.55
2023-05-11T15:54:47.637Z,21.32
2023-05-11T15:57:15.766Z,21.24
2023-05-11T15:59:43.848Z,21.26
2023-05-11T16:02:12.308Z,21.13
2023-05-11T16:04:41.857Z,20.97
2023-05-11T16:07:09.849Z,21.04
2023-05-11T16:09:37.814Z,21.01
2023-05-11T16:12:06.384Z,20.99
2023-05-11T16:14:34.640Z,20.83
2023-05-11T16:17:02.853Z,20.69
2023-05-11T16:19:31.535Z,20.67
2023-05-11T16:22:01.034Z,20.57
2023-05-11T16:24:31.595Z,20.56
2023-05-11T16:27:01.170Z,20.57
2023-05-11T16:29:29.161Z,20.51
2023-05-11T16:31:57.194Z,20.55
2023-05-11T16:34:25.109Z,20.51
2023-05-11T16:36:53.301Z,20.55
2023-05-11T16:39:22.835Z,20.61
2023-05-11T16:41:50.907Z,20.59
2023-05-11T16:44:19.036Z,20.70
2023-05-11T16:46:46.961Z,20.70
2023-05-11T16:49:14.990Z,20.81
2023-05-11T16:51:43.422Z,20.82
2023-05-11T16:54:12.561Z,20.89
2023-05-11T16:56:41.907Z,20.88
2023-05-11T16:59:11.083Z,20.87
2023-05-11T17:01:39.206Z,20.78
2023-05-11T17:04:07.184Z,20.77
2023-05-11T17:06:35.267Z,20.74
2023-05-11T17:09:03.254Z,20.67
2023-05-11T17:11:31.749Z,20.70
2023-05-11T17:14:01.037Z,20.66
2023-05-11T17:16:29.521Z,20.68
2023-05-11T17:18:59.020Z,20.63
2023-05-11T17:21:27.154Z,20.54
2023-05-11T17:23:55.080Z,20.59
2023-05-11T17:26:25.317Z,20.58
2023-05-11T17:28:57.873Z,20.60
2023-05-11T17:31:27.761Z,20.59
2023-05-11T17:33:58.836Z,20.58
2023-05-11T17:36:29.580Z,20.51
2023-05-11T17:38:58.636Z,20.47
2023-05-11T17:41:26.718Z,20.43
2023-05-11T17:43:54.782Z,20.45
2023-05-11T17:46:23.084Z,20.41
2023-05-11T17:48:54.415Z,20.39
2023-05-11T17:51:22.601Z,20.38
2023-05-11T17:53:50.909Z,20.33
2023-05-11T17:56:19.340Z,20.26
2023-05-11T17:58:47.672Z,20.13
2023-05-11T18:01:15.801Z,20.12
2023-05-11T18:03:44.146Z,20.07
2023-05-11T18:06:13.938Z,20.07
2023-05-11T18:08:41.857Z,20.01
2023-05-11T18:11:13.383Z,20.11
2023-05-11T18:13:41.468Z,20.16
2023-05-11T18:16:12.778Z,20.09
2023-05-11T18:18:42.306Z,20.06
2023-05-11T18:21:12.305Z,20.08
2023-05-11T18:23:41.815Z,20.07
2023-05-11T18:26:09.719Z,20.07
2023-05-11T18:28:37.980Z,20.04
2023-05-11T18:31:06.010Z,19.82
2023-05-11T18:33:33.984Z,19.74
2023-05-11T18:36:03.230Z,19.69
2023-05-11T18:38:31.220Z,19.76
2023-05-11T18:41:05.161Z,19.79
2023-05-11T18:43:34.538Z,19.78
2023-05-11T18:46:02.628Z,19.59
2023-05-11T18:48:30.830Z,19.65
2023-05-11T18:50:58.980Z,19.57
2023-05-11T18:53:27.437Z,19.38
2023-05-11T18:55:56.194Z,19.40
2023-05-11T18:58:25.850Z,19.41
2023-05-11T19:00:53.807Z,19.31
2023-05-11T19:03:23.126Z,19.36
2023-05-11T19:05:52.036Z,19.30
2023-05-11T19:08:20.339Z,19.25
2023-05-11T19:10:49.477Z,19.31
2023-05-11T19:13:17.642Z,19.25
2023-05-11T19:15:47.346Z,19.22
2023-05-11T19:18:15.271Z,19.17
2023-05-11T19:20:43.495Z,19.17
2023-05-11T19:23:14.797Z,19.24
2023-05-11T19:25:43.408Z,19.26
2023-05-11T19:28:13.576Z,19.20
2023-05-11T19:30:41.814Z,19.13
2023-05-11T19:33:15.535Z,19.05
2023-05-11T19:35:43.610Z,19.06
2023-05-11T19:38:12.600Z,19.04
2023-05-11T19:43:13.805Z,19.02
2023-05-11T19:45:43.603Z,18.95
2023-05-11T19:48:15.120Z,18.91
2023-05-11T19:50:43.303Z,18.86
2023-05-11T19:53:12.104Z,18.81
2023-05-11T19:55:41.015Z,18.72
2023-05-11T19:58:09.364Z,18.70
2023-05-11T20:00:37.565Z,18.66
2023-05-11T20:03:05.706Z,18.66
2023-05-11T20:05:35.147Z,18.60
2023-05-11T20:08:03.293Z,18.48
2023-05-11T20:10:37.568Z,18.45
2023-05-11T20:13:06.560Z,18.37
2023-05-11T20:15:36.736Z,18.33
2023-05-11T20:18:06.763Z,18.29
2023-05-11T20:20:36.490Z,18.26
2023-05-11T20:23:04.965Z,18.14
2023-05-11T20:25:33.080Z,18.12
2023-05-11T20:28:06.969Z,18.07
2023-05-11T20:30:35.005Z,18.04
2023-05-11T20:35:35.224Z,17.96
2023-05-11T20:38:03.200Z,17.88
2023-05-11T20:40:31.371Z,17.87
2023-05-11T20:42:59.449Z,17.84
2023-05-11T20:45:27.614Z,17.83
2023-05-11T20:47:55.969Z,17.82
2023-05-11T20:50:24.691Z,17.80
2023-05-11T20:52:54.205Z,17.66
2023-05-11T20:55:22.598Z,17.74
2023-05-11T20:57:54.281Z,17.78
2023-05-11T21:00:22.979Z,17.82
2023-05-11T21:02:51.285Z,17.79
2023-05-11T21:05:19.627Z,17.75
2023-05-11T21:07:48.857Z,17.75
2023-05-11T21:10:18.873Z,17.70
2023-05-11T21:12:46.998Z,17.69
2023-05-11T21:15:18.806Z,17.63
2023-05-11T21:17:47.207Z,17.68
2023-05-11T21:20:15.462Z,17.75
2023-05-11T21:22:43.659Z,17.77
2023-05-11T21:25:12.579Z,17.73
2023-05-11T21:27:42.790Z,17.62
2023-05-11T21:30:11.507Z,17.65
2023-05-11T21:32:39.443Z,17.52
2023-05-11T21:35:08.653Z,17.53
2023-05-11T21:37:37.112Z,17.54
2023-05-11T21:40:07.382Z,17.54
2023-05-11T21:42:36.408Z,17.55
2023-05-11T21:45:06.937Z,17.48
2023-05-11T21:47:35.108Z,17.43
2023-05-11T21:50:03.270Z,17.44
2023-05-11T21:52:31.246Z,17.39
2023-05-11T21:54:59.181Z,17.32
2023-05-11T21:57:27.153Z,17.31
2023-05-11T21:59:55.191Z,17.31
2023-05-11T22:02:24.724Z,17.20
2023-05-11T22:04:52.834Z,17.20
2023-05-11T22:07:21.457Z,17.23
2023-05-11T22:09:49.361Z,17.29
2023-05-11T22:12:17.542Z,17.26
2023-05-11T22:14:45.898Z,17.27
2023-05-11T22:17:14.226Z,17.29
2023-05-11T22:19:43.508Z,17.29
2023-05-11T22:22:13.116Z,17.26
2023-05-11T22:24:55.222Z,17.28
2023-05-11T22:27:23.288Z,17.24
2023-05-11T22:29:52.210Z,17.21
2023-05-11T22:32:20.258Z,17.16
2023-05-11T22:34:58.548Z,17.16
2023-05-11T22:37:26.905Z,17.11
2023-05-11T22:39:56.716Z,17.09
2023-05-11T22:42:24.825Z,17.07
2023-05-11T22:44:52.932Z,17.08
2023-05-11T22:47:21.023Z,17.06
2023-05-11T22:49:50.817Z,17.03
2023-05-11T22:52:18.877Z,17.02
2023-05-11T22:54:47.238Z,16.98
2023-05-11T22:57:17.257Z,16.92
2023-05-11T22:59:48.064Z,16.81
2023-05-11T23:02:16.729Z,16.73
2023-05-11T23:04:45.849Z,16.70
2023-05-11T23:07:15.366Z,16.66
2023-05-11T23:09:43.329Z,16.58
2023-05-11T23:12:11.346Z,16.58
2023-05-11T23:14:39.510Z,16.50
2023-05-11T23:17:07.566Z,16.44
2023-05-11T23:19:36.026Z,16.38
2023-05-11T23:22:04.300Z,16.35
2023-05-11T23:24:33.983Z,16.28
2023-05-11T23:27:03.853Z,16.23
2023-05-11T23:29:31.924Z,16.23
2023-05-11T23:32:00.033Z,16.23
2023-05-11T23:34:28.636Z,16.22
2023-05-11T23:36:59.770Z,16.14
2023-05-11T23:39:27.663Z,16.21
2023-05-11T23:41:57.433Z,16.30
2023-05-11T23:44:25.489Z,16.32
2023-05-11T23:46:53.374Z,16.31
2023-05-11T23:49:21.522Z,16.32
2023-05-11T23:51:49.476Z,16.37
2023-05-11T23:54:17.536Z,16.43
2023-05-11T23:56:46.975Z,16.45
2023-05-11T23:59:16.919Z,16.42
